sensor_id;sensor_type;location;lat;lon;timestamp;P1;P2;P0
77699;PMS5003;66867;42.658;23.320;2023-05-10T00:00:00;13;12;
77699;PMS5003;66867;42.658;23.320;2023-05-10T00:01:00;13;13;
77699;PMS5003;66867;42.658;23.320;2023-05-10T00:02:00;13;13;
77699;PMS5003;66867;42.658;23.320;2023-05-10T00:03:00;14;12;
77699;PMS5003;66867;42.658;23.320;2023-05-10T00:04:00;13;12;
77699;PMS5003;66867;42.658;23.320;2023-05-10T00:05:01;12;12;
77699;PMS5003;66867;42.658;23.320;2023-05-10T00:06:00;14;14;
77699;PMS5003;66867;42.658;23.320;2023-05-10T00:07:00;14;14;
77699;PMS5003;66867;42.658;23.320;2023-05-10T00:08:00;16;16;
77699;PMS5003;66867;42.658;23.320;2023-05-10T00:09:00;13;12;
77699;PMS5003;66867;42.658;23.320;2023-05-10T00:10:00;14;14;
77699;PMS5003;66867;42.658;23.320;2023-05-10T00:11:00;16;16;
77699;PMS5003;66867;42.658;23.320;2023-05-10T00:12:00;16;15;
77699;PMS5003;66867;42.658;23.320;2023-05-10T00:13:00;12;12;
77699;PMS5003;66867;42.658;23.320;2023-05-10T00:14:00;14;14;
77699;PMS5003;66867;42.658;23.320;2023-05-10T00:15:00;13;13;
77699;PMS5003;66867;42.658;23.320;2023-05-10T00:16:00;14;14;
77699;PMS5003;66867;42.658;23.320;2023-05-10T00:17:00;12;12;
77699;PMS5003;66867;42.658;23.320;2023-05-10T00:18:00;14;14;
77699;PMS5003;66867;42.658;23.320;2023-05-10T00:19:00;15;15;
77699;PMS5003;66867;42.658;23.320;2023-05-10T00:20:00;14;13;
77699;PMS5003;66867;42.658;23.320;2023-05-10T00:21:00;13;13;
77699;PMS5003;66867;42.658;23.320;2023-05-10T00:22:00;12;12;
77699;PMS5003;66867;42.658;23.320;2023-05-10T00:23:00;12;12;
77699;PMS5003;66867;42.658;23.320;2023-05-10T00:24:00;13;12;
77699;PMS5003;66867;42.658;23.320;2023-05-10T00:25:00;15;15;
77699;PMS5003;66867;42.658;23.320;2023-05-10T00:26:00;14;14;
77699;PMS5003;66867;42.658;23.320;2023-05-10T00:27:00;14;14;
77699;PMS5003;66867;42.658;23.320;2023-05-10T00:28:00;17;16;
77699;PMS5003;66867;42.658;23.320;2023-05-10T00:29:00;17;16;
77699;PMS5003;66867;42.658;23.320;2023-05-10T00:30:00;15;14;
77699;PMS5003;66867;42.658;23.320;2023-05-10T00:31:00;18;15;
77699;PMS5003;66867;42.658;23.320;2023-05-10T00:32:00;17;16;
77699;PMS5003;66867;42.658;23.320;2023-05-10T00:33:00;14;14;
77699;PMS5003;66867;42.658;23.320;2023-05-10T00:34:00;14;14;
77699;PMS5003;66867;42.658;23.320;2023-05-10T00:35:00;16;16;
77699;PMS5003;66867;42.658;23.320;2023-05-10T00:36:00;15;14;
77699;PMS5003;66867;42.658;23.320;2023-05-10T00:37:00;15;15;
77699;PMS5003;66867;42.658;23.320;2023-05-10T00:38:00;16;16;
77699;PMS5003;66867;42.658;23.320;2023-05-10T00:39:00;14;14;
77699;PMS5003;66867;42.658;23.320;2023-05-10T00:40:00;16;16;
77699;PMS5003;66867;42.658;23.320;2023-05-10T00:41:00;15;15;
77699;PMS5003;66867;42.658;23.320;2023-05-10T00:42:00;14;14;
77699;PMS5003;66867;42.658;23.320;2023-05-10T00:43:00;18;18;
77699;PMS5003;66867;42.658;23.320;2023-05-10T00:44:00;14;14;
77699;PMS5003;66867;42.658;23.320;2023-05-10T00:45:00;19;19;
77699;PMS5003;66867;42.658;23.320;2023-05-10T00:46:00;14;14;
77699;PMS5003;66867;42.658;23.320;2023-05-10T00:47:00;17;17;
77699;PMS5003;66867;42.658;23.320;2023-05-10T00:48:02;14;14;
77699;PMS5003;66867;42.658;23.320;2023-05-10T00:49:00;16;16;
77699;PMS5003;66867;42.658;23.320;2023-05-10T00:50:00;16;16;
77699;PMS5003;66867;42.658;23.320;2023-05-10T00:51:01;20;20;
77699;PMS5003;66867;42.658;23.320;2023-05-10T00:52:00;16;16;
77699;PMS5003;66867;42.658;23.320;2023-05-10T00:53:00;17;17;
77699;PMS5003;66867;42.658;23.320;2023-05-10T00:54:00;17;17;
77699;PMS5003;66867;42.658;23.320;2023-05-10T00:55:00;17;17;
77699;PMS5003;66867;42.658;23.320;2023-05-10T00:56:01;19;19;
77699;PMS5003;66867;42.658;23.320;2023-05-10T00:57:00;17;17;
77699;PMS5003;66867;42.658;23.320;2023-05-10T00:58:00;16;15;
77699;PMS5003;66867;42.658;23.320;2023-05-10T00:59:00;16;16;
77699;PMS5003;66867;42.658;23.320;2023-05-10T01:00:01;16;15;
77699;PMS5003;66867;42.658;23.320;2023-05-10T01:01:01;19;19;
77699;PMS5003;66867;42.658;23.320;2023-05-10T01:02:01;19;19;
77699;PMS5003;66867;42.658;23.320;2023-05-10T01:03:00;19;19;
77699;PMS5003;66867;42.658;23.320;2023-05-10T01:04:00;18;16;
77699;PMS5003;66867;42.658;23.320;2023-05-10T01:05:02;20;18;
77699;PMS5003;66867;42.658;23.320;2023-05-10T01:06:00;20;20;
77699;PMS5003;66867;42.658;23.320;2023-05-10T01:07:00;17;17;
77699;PMS5003;66867;42.658;23.320;2023-05-10T01:08:00;19;17;
77699;PMS5003;66867;42.658;23.320;2023-05-10T01:09:00;15;15;
77699;PMS5003;66867;42.658;23.320;2023-05-10T01:10:00;20;19;
77699;PMS5003;66867;42.658;23.320;2023-05-10T01:11:00;16;16;
77699;PMS5003;66867;42.658;23.320;2023-05-10T01:12:00;19;19;
77699;PMS5003;66867;42.658;23.320;2023-05-10T01:13:00;16;16;
77699;PMS5003;66867;42.658;23.320;2023-05-10T01:14:01;17;17;
77699;PMS5003;66867;42.658;23.320;2023-05-10T01:15:01;16;16;
77699;PMS5003;66867;42.658;23.320;2023-05-10T01:16:00;18;18;
77699;PMS5003;66867;42.658;23.320;2023-05-10T01:17:00;17;17;
77699;PMS5003;66867;42.658;23.320;2023-05-10T01:18:01;17;17;
77699;PMS5003;66867;42.658;23.320;2023-05-10T01:19:00;16;16;
77699;PMS5003;66867;42.658;23.320;2023-05-10T01:20:00;19;17;
77699;PMS5003;66867;42.658;23.320;2023-05-10T01:21:09;17;17;
77699;PMS5003;66867;42.658;23.320;2023-05-10T01:22:08;20;19;
77699;PMS5003;66867;42.658;23.320;2023-05-10T01:23:25;17;17;
77699;PMS5003;66867;42.658;23.320;2023-05-10T01:26:14;20;20;
77699;PMS5003;66867;42.658;23.320;2023-05-10T01:30:08;20;19;
77699;PMS5003;66867;42.658;23.320;2023-05-10T01:31:03;17;16;
77699;PMS5003;66867;42.658;23.320;2023-05-10T01:34:12;20;19;
77699;PMS5003;66867;42.658;23.320;2023-05-10T01:35:03;19;17;
77699;PMS5003;66867;42.658;23.320;2023-05-10T01:37:07;19;15;
77699;PMS5003;66867;42.658;23.320;2023-05-10T01:39:08;14;14;
77699;PMS5003;66867;42.658;23.320;2023-05-10T01:40:14;12;12;
77699;PMS5003;66867;42.658;23.320;2023-05-10T01:41:08;12;12;
77699;PMS5003;66867;42.658;23.320;2023-05-10T01:42:07;14;14;
77699;PMS5003;66867;42.658;23.320;2023-05-10T01:43:02;16;16;
77699;PMS5003;66867;42.658;23.320;2023-05-10T01:45:13;14;14;
77699;PMS5003;66867;42.658;23.320;2023-05-10T01:46:07;13;13;
77699;PMS5003;66867;42.658;23.320;2023-05-10T01:47:07;12;12;
77699;PMS5003;66867;42.658;23.320;2023-05-10T01:48:10;13;12;
77699;PMS5003;66867;42.658;23.320;2023-05-10T01:49:02;12;12;
77699;PMS5003;66867;42.658;23.320;2023-05-10T01:50:03;15;14;
77699;PMS5003;66867;42.658;23.320;2023-05-10T01:51:00;12;12;
77699;PMS5003;66867;42.658;23.320;2023-05-10T01:52:06;13;13;
77699;PMS5003;66867;42.658;23.320;2023-05-10T01:53:01;14;14;
77699;PMS5003;66867;42.658;23.320;2023-05-10T01:54:02;13;13;
77699;PMS5003;66867;42.658;23.320;2023-05-10T01:55:04;10;10;
77699;PMS5003;66867;42.658;23.320;2023-05-10T01:56:01;13;13;
77699;PMS5003;66867;42.658;23.320;2023-05-10T01:57:05;12;12;
77699;PMS5003;66867;42.658;23.320;2023-05-10T01:58:05;13;13;
77699;PMS5003;66867;42.658;23.320;2023-05-10T01:59:06;13;13;
77699;PMS5003;66867;42.658;23.320;2023-05-10T02:00:03;13;13;
77699;PMS5003;66867;42.658;23.320;2023-05-10T02:01:03;13;13;
77699;PMS5003;66867;42.658;23.320;2023-05-10T02:02:01;13;13;
77699;PMS5003;66867;42.658;23.320;2023-05-10T02:03:05;12;12;
77699;PMS5003;66867;42.658;23.320;2023-05-10T02:04:01;14;13;
77699;PMS5003;66867;42.658;23.320;2023-05-10T02:05:01;13;13;
77699;PMS5003;66867;42.658;23.320;2023-05-10T02:06:01;17;15;
77699;PMS5003;66867;42.658;23.320;2023-05-10T02:07:00;14;13;
77699;PMS5003;66867;42.658;23.320;2023-05-10T02:08:01;14;14;
77699;PMS5003;66867;42.658;23.320;2023-05-10T02:09:01;14;14;
77699;PMS5003;66867;42.658;23.320;2023-05-10T02:10:01;12;12;
77699;PMS5003;66867;42.658;23.320;2023-05-10T02:11:00;12;12;
77699;PMS5003;66867;42.658;23.320;2023-05-10T02:12:02;14;14;
77699;PMS5003;66867;42.658;23.320;2023-05-10T02:13:02;12;12;
77699;PMS5003;66867;42.658;23.320;2023-05-10T02:14:01;11;11;
77699;PMS5003;66867;42.658;23.320;2023-05-10T02:15:02;13;13;
77699;PMS5003;66867;42.658;23.320;2023-05-10T02:16:01;14;14;
77699;PMS5003;66867;42.658;23.320;2023-05-10T02:17:02;15;15;
77699;PMS5003;66867;42.658;23.320;2023-05-10T02:18:01;13;12;
77699;PMS5003;66867;42.658;23.320;2023-05-10T02:19:01;17;14;
77699;PMS5003;66867;42.658;23.320;2023-05-10T02:20:01;15;14;
77699;PMS5003;66867;42.658;23.320;2023-05-10T02:21:02;14;14;
77699;PMS5003;66867;42.658;23.320;2023-05-10T02:22:01;16;16;
77699;PMS5003;66867;42.658;23.320;2023-05-10T02:23:02;14;13;
77699;PMS5003;66867;42.658;23.320;2023-05-10T02:24:02;16;16;
77699;PMS5003;66867;42.658;23.320;2023-05-10T02:25:00;14;14;
77699;PMS5003;66867;42.658;23.320;2023-05-10T02:26:01;14;14;
77699;PMS5003;66867;42.658;23.320;2023-05-10T02:27:01;13;13;
77699;PMS5003;66867;42.658;23.320;2023-05-10T02:28:03;15;14;
77699;PMS5003;66867;42.658;23.320;2023-05-10T02:29:02;14;12;
77699;PMS5003;66867;42.658;23.320;2023-05-10T02:30:01;13;13;
77699;PMS5003;66867;42.658;23.320;2023-05-10T02:31:00;14;13;
77699;PMS5003;66867;42.658;23.320;2023-05-10T02:32:01;17;16;
77699;PMS5003;66867;42.658;23.320;2023-05-10T02:33:01;12;11;
77699;PMS5003;66867;42.658;23.320;2023-05-10T02:34:01;11;11;
77699;PMS5003;66867;42.658;23.320;2023-05-10T02:35:02;13;12;
77699;PMS5003;66867;42.658;23.320;2023-05-10T02:36:01;12;12;
77699;PMS5003;66867;42.658;23.320;2023-05-10T02:37:02;16;14;
77699;PMS5003;66867;42.658;23.320;2023-05-10T02:38:01;12;12;
77699;PMS5003;66867;42.658;23.320;2023-05-10T02:39:01;14;14;
77699;PMS5003;66867;42.658;23.320;2023-05-10T02:40:01;13;12;
77699;PMS5003;66867;42.658;23.320;2023-05-10T02:41:01;13;13;
77699;PMS5003;66867;42.658;23.320;2023-05-10T02:42:01;13;13;
77699;PMS5003;66867;42.658;23.320;2023-05-10T02:43:01;16;16;
77699;PMS5003;66867;42.658;23.320;2023-05-10T02:44:02;16;15;
77699;PMS5003;66867;42.658;23.320;2023-05-10T02:45:02;15;15;
77699;PMS5003;66867;42.658;23.320;2023-05-10T02:46:00;16;15;
77699;PMS5003;66867;42.658;23.320;2023-05-10T02:47:02;15;15;
77699;PMS5003;66867;42.658;23.320;2023-05-10T02:48:00;12;12;
77699;PMS5003;66867;42.658;23.320;2023-05-10T02:49:00;17;17;
77699;PMS5003;66867;42.658;23.320;2023-05-10T02:50:00;16;16;
77699;PMS5003;66867;42.658;23.320;2023-05-10T02:51:03;16;16;
77699;PMS5003;66867;42.658;23.320;2023-05-10T02:52:01;15;15;
77699;PMS5003;66867;42.658;23.320;2023-05-10T02:53:01;13;13;
77699;PMS5003;66867;42.658;23.320;2023-05-10T02:54:06;13;13;
77699;PMS5003;66867;42.658;23.320;2023-05-10T02:55:02;15;15;
77699;PMS5003;66867;42.658;23.320;2023-05-10T02:56:04;16;16;
77699;PMS5003;66867;42.658;23.320;2023-05-10T02:57:04;15;15;
77699;PMS5003;66867;42.658;23.320;2023-05-10T02:58:01;17;17;
77699;PMS5003;66867;42.658;23.320;2023-05-10T02:59:00;16;16;
77699;PMS5003;66867;42.658;23.320;2023-05-10T03:00:01;18;17;
77699;PMS5003;66867;42.658;23.320;2023-05-10T03:01:00;17;16;
77699;PMS5003;66867;42.658;23.320;2023-05-10T03:02:01;19;16;
77699;PMS5003;66867;42.658;23.320;2023-05-10T03:03:00;15;15;
77699;PMS5003;66867;42.658;23.320;2023-05-10T03:04:00;15;13;
77699;PMS5003;66867;42.658;23.320;2023-05-10T03:05:00;15;15;
77699;PMS5003;66867;42.658;23.320;2023-05-10T03:06:00;15;13;
77699;PMS5003;66867;42.658;23.320;2023-05-10T03:07:01;15;15;
77699;PMS5003;66867;42.658;23.320;2023-05-10T03:08:00;17;17;
77699;PMS5003;66867;42.658;23.320;2023-05-10T03:09:01;18;16;
77699;PMS5003;66867;42.658;23.320;2023-05-10T03:10:00;13;13;
77699;PMS5003;66867;42.658;23.320;2023-05-10T03:12:04;20;18;
77699;PMS5003;66867;42.658;23.320;2023-05-10T03:13:12;19;18;
77699;PMS5003;66867;42.658;23.320;2023-05-10T03:15:04;15;15;
77699;PMS5003;66867;42.658;23.320;2023-05-10T03:16:07;17;17;
77699;PMS5003;66867;42.658;23.320;2023-05-10T03:17:07;13;13;
77699;PMS5003;66867;42.658;23.320;2023-05-10T03:18:04;16;16;
77699;PMS5003;66867;42.658;23.320;2023-05-10T03:19:06;19;19;
77699;PMS5003;66867;42.658;23.320;2023-05-10T03:20:06;19;19;
77699;PMS5003;66867;42.658;23.320;2023-05-10T03:21:03;17;16;
77699;PMS5003;66867;42.658;23.320;2023-05-10T03:22:04;18;17;
77699;PMS5003;66867;42.658;23.320;2023-05-10T03:23:07;18;18;
77699;PMS5003;66867;42.658;23.320;2023-05-10T03:24:07;18;16;
77699;PMS5003;66867;42.658;23.320;2023-05-10T03:25:04;20;19;
77699;PMS5003;66867;42.658;23.320;2023-05-10T03:26:01;17;17;
77699;PMS5003;66867;42.658;23.320;2023-05-10T03:27:01;18;15;
77699;PMS5003;66867;42.658;23.320;2023-05-10T03:28:01;22;20;
77699;PMS5003;66867;42.658;23.320;2023-05-10T03:29:00;19;17;
77699;PMS5003;66867;42.658;23.320;2023-05-10T03:30:02;20;19;
77699;PMS5003;66867;42.658;23.320;2023-05-10T03:31:01;18;16;
77699;PMS5003;66867;42.658;23.320;2023-05-10T03:32:00;18;17;
77699;PMS5003;66867;42.658;23.320;2023-05-10T03:33:08;15;15;
77699;PMS5003;66867;42.658;23.320;2023-05-10T03:34:00;18;17;
77699;PMS5003;66867;42.658;23.320;2023-05-10T03:35:00;17;17;
77699;PMS5003;66867;42.658;23.320;2023-05-10T03:36:00;18;16;
77699;PMS5003;66867;42.658;23.320;2023-05-10T03:37:00;20;18;
77699;PMS5003;66867;42.658;23.320;2023-05-10T03:38:00;15;13;
77699;PMS5003;66867;42.658;23.320;2023-05-10T03:39:00;19;18;
77699;PMS5003;66867;42.658;23.320;2023-05-10T03:40:00;15;15;
77699;PMS5003;66867;42.658;23.320;2023-05-10T03:41:00;13;13;
77699;PMS5003;66867;42.658;23.320;2023-05-10T03:42:00;18;17;
77699;PMS5003;66867;42.658;23.320;2023-05-10T03:43:00;16;16;
77699;PMS5003;66867;42.658;23.320;2023-05-10T03:44:00;13;13;
77699;PMS5003;66867;42.658;23.320;2023-05-10T03:45:00;15;15;
77699;PMS5003;66867;42.658;23.320;2023-05-10T03:46:03;19;18;
77699;PMS5003;66867;42.658;23.320;2023-05-10T03:47:00;16;16;
77699;PMS5003;66867;42.658;23.320;2023-05-10T03:48:00;13;13;
77699;PMS5003;66867;42.658;23.320;2023-05-10T03:49:00;15;15;
77699;PMS5003;66867;42.658;23.320;2023-05-10T03:50:00;18;17;
77699;PMS5003;66867;42.658;23.320;2023-05-10T03:51:00;17;16;
77699;PMS5003;66867;42.658;23.320;2023-05-10T03:52:00;16;16;
77699;PMS5003;66867;42.658;23.320;2023-05-10T03:53:00;15;15;
77699;PMS5003;66867;42.658;23.320;2023-05-10T03:54:00;13;13;
77699;PMS5003;66867;42.658;23.320;2023-05-10T03:55:00;16;16;
77699;PMS5003;66867;42.658;23.320;2023-05-10T03:56:00;15;15;
77699;PMS5003;66867;42.658;23.320;2023-05-10T03:57:00;15;13;
77699;PMS5003;66867;42.658;23.320;2023-05-10T03:58:00;13;13;
77699;PMS5003;66867;42.658;23.320;2023-05-10T03:59:00;13;13;
77699;PMS5003;66867;42.658;23.320;2023-05-10T04:00:00;16;16;
77699;PMS5003;66867;42.658;23.320;2023-05-10T04:01:00;17;17;
77699;PMS5003;66867;42.658;23.320;2023-05-10T04:02:00;18;17;
77699;PMS5003;66867;42.658;23.320;2023-05-10T04:03:00;15;15;
77699;PMS5003;66867;42.658;23.320;2023-05-10T04:04:00;13;13;
77699;PMS5003;66867;42.658;23.320;2023-05-10T04:05:00;16;16;
77699;PMS5003;66867;42.658;23.320;2023-05-10T04:06:00;16;16;
77699;PMS5003;66867;42.658;23.320;2023-05-10T04:07:00;14;14;
77699;PMS5003;66867;42.658;23.320;2023-05-10T04:08:00;16;15;
77699;PMS5003;66867;42.658;23.320;2023-05-10T04:09:00;13;13;
77699;PMS5003;66867;42.658;23.320;2023-05-10T04:10:00;15;15;
77699;PMS5003;66867;42.658;23.320;2023-05-10T04:11:09;16;15;
77699;PMS5003;66867;42.658;23.320;2023-05-10T04:12:00;19;18;
77699;PMS5003;66867;42.658;23.320;2023-05-10T04:13:00;15;13;
77699;PMS5003;66867;42.658;23.320;2023-05-10T04:14:00;17;15;
77699;PMS5003;66867;42.658;23.320;2023-05-10T04:15:00;13;13;
77699;PMS5003;66867;42.658;23.320;2023-05-10T04:16:00;15;13;
77699;PMS5003;66867;42.658;23.320;2023-05-10T04:17:00;16;15;
77699;PMS5003;66867;42.658;23.320;2023-05-10T04:18:00;18;17;
77699;PMS5003;66867;42.658;23.320;2023-05-10T04:19:00;17;17;
77699;PMS5003;66867;42.658;23.320;2023-05-10T04:20:00;16;14;
77699;PMS5003;66867;42.658;23.320;2023-05-10T04:21:00;16;16;
77699;PMS5003;66867;42.658;23.320;2023-05-10T04:22:02;17;17;
77699;PMS5003;66867;42.658;23.320;2023-05-10T04:23:00;15;15;
77699;PMS5003;66867;42.658;23.320;2023-05-10T04:24:00;16;15;
77699;PMS5003;66867;42.658;23.320;2023-05-10T04:25:00;13;13;
77699;PMS5003;66867;42.658;23.320;2023-05-10T04:26:01;13;13;
77699;PMS5003;66867;42.658;23.320;2023-05-10T04:27:00;13;13;
77699;PMS5003;66867;42.658;23.320;2023-05-10T04:28:00;17;17;
77699;PMS5003;66867;42.658;23.320;2023-05-10T04:29:00;16;16;
77699;PMS5003;66867;42.658;23.320;2023-05-10T04:30:00;18;18;
77699;PMS5003;66867;42.658;23.320;2023-05-10T04:31:02;16;15;
77699;PMS5003;66867;42.658;23.320;2023-05-10T04:32:00;16;15;
77699;PMS5003;66867;42.658;23.320;2023-05-10T04:33:00;22;19;
77699;PMS5003;66867;42.658;23.320;2023-05-10T04:34:00;17;17;
77699;PMS5003;66867;42.658;23.320;2023-05-10T04:35:00;13;13;
77699;PMS5003;66867;42.658;23.320;2023-05-10T04:36:01;18;17;
77699;PMS5003;66867;42.658;23.320;2023-05-10T04:37:00;16;15;
77699;PMS5003;66867;42.658;23.320;2023-05-10T04:38:00;16;16;
77699;PMS5003;66867;42.658;23.320;2023-05-10T04:39:00;18;17;
77699;PMS5003;66867;42.658;23.320;2023-05-10T04:40:00;16;16;
77699;PMS5003;66867;42.658;23.320;2023-05-10T04:41:09;16;16;
77699;PMS5003;66867;42.658;23.320;2023-05-10T04:42:01;18;18;
77699;PMS5003;66867;42.658;23.320;2023-05-10T04:43:00;20;19;
77699;PMS5003;66867;42.658;23.320;2023-05-10T04:44:00;20;19;
77699;PMS5003;66867;42.658;23.320;2023-05-10T04:45:00;17;17;
77699;PMS5003;66867;42.658;23.320;2023-05-10T04:46:00;17;16;
77699;PMS5003;66867;42.658;23.320;2023-05-10T04:47:00;20;19;
77699;PMS5003;66867;42.658;23.320;2023-05-10T04:48:00;17;17;
77699;PMS5003;66867;42.658;23.320;2023-05-10T04:49:00;18;17;
77699;PMS5003;66867;42.658;23.320;2023-05-10T04:50:00;18;18;
77699;PMS5003;66867;42.658;23.320;2023-05-10T04:51:00;18;17;
77699;PMS5003;66867;42.658;23.320;2023-05-10T04:52:00;23;21;
77699;PMS5003;66867;42.658;23.320;2023-05-10T04:53:00;18;18;
77699;PMS5003;66867;42.658;23.320;2023-05-10T04:54:00;18;18;
77699;PMS5003;66867;42.658;23.320;2023-05-10T04:55:00;23;21;
77699;PMS5003;66867;42.658;23.320;2023-05-10T04:56:00;18;18;
77699;PMS5003;66867;42.658;23.320;2023-05-10T04:57:00;20;20;
77699;PMS5003;66867;42.658;23.320;2023-05-10T04:58:00;19;16;
77699;PMS5003;66867;42.658;23.320;2023-05-10T04:59:00;18;18;
77699;PMS5003;66867;42.658;23.320;2023-05-10T05:00:00;20;19;
77699;PMS5003;66867;42.658;23.320;2023-05-10T05:01:05;18;18;
77699;PMS5003;66867;42.658;23.320;2023-05-10T05:02:00;23;23;
77699;PMS5003;66867;42.658;23.320;2023-05-10T05:03:00;19;19;
77699;PMS5003;66867;42.658;23.320;2023-05-10T05:04:00;19;19;
77699;PMS5003;66867;42.658;23.320;2023-05-10T05:05:00;18;17;
77699;PMS5003;66867;42.658;23.320;2023-05-10T05:06:00;17;17;
77699;PMS5003;66867;42.658;23.320;2023-05-10T05:07:00;17;17;
77699;PMS5003;66867;42.658;23.320;2023-05-10T05:08:00;18;18;
77699;PMS5003;66867;42.658;23.320;2023-05-10T05:09:00;20;18;
77699;PMS5003;66867;42.658;23.320;2023-05-10T05:10:00;19;19;
77699;PMS5003;66867;42.658;23.320;2023-05-10T05:11:00;19;19;
77699;PMS5003;66867;42.658;23.320;2023-05-10T05:12:00;17;17;
77699;PMS5003;66867;42.658;23.320;2023-05-10T05:13:00;18;18;
77699;PMS5003;66867;42.658;23.320;2023-05-10T05:14:00;20;19;
77699;PMS5003;66867;42.658;23.320;2023-05-10T05:15:01;24;21;
77699;PMS5003;66867;42.658;23.320;2023-05-10T05:16:01;21;20;
77699;PMS5003;66867;42.658;23.320;2023-05-10T05:17:00;24;23;
77699;PMS5003;66867;42.658;23.320;2023-05-10T05:18:00;18;18;
77699;PMS5003;66867;42.658;23.320;2023-05-10T05:19:00;19;19;
77699;PMS5003;66867;42.658;23.320;2023-05-10T05:20:00;21;21;
77699;PMS5003;66867;42.658;23.320;2023-05-10T05:21:00;20;18;
77699;PMS5003;66867;42.658;23.320;2023-05-10T05:22:00;18;18;
77699;PMS5003;66867;42.658;23.320;2023-05-10T05:23:00;20;20;
77699;PMS5003;66867;42.658;23.320;2023-05-10T05:24:00;20;20;
77699;PMS5003;66867;42.658;23.320;2023-05-10T05:25:00;21;20;
77699;PMS5003;66867;42.658;23.320;2023-05-10T05:26:00;21;20;
77699;PMS5003;66867;42.658;23.320;2023-05-10T05:27:00;20;19;
77699;PMS5003;66867;42.658;23.320;2023-05-10T05:28:00;22;22;
77699;PMS5003;66867;42.658;23.320;2023-05-10T05:29:00;22;22;
77699;PMS5003;66867;42.658;23.320;2023-05-10T05:30:00;20;20;
77699;PMS5003;66867;42.658;23.320;2023-05-10T05:31:00;34;33;
77699;PMS5003;66867;42.658;23.320;2023-05-10T05:32:00;43;37;
77699;PMS5003;66867;42.658;23.320;2023-05-10T05:33:00;32;30;
77699;PMS5003;66867;42.658;23.320;2023-05-10T05:34:00;28;27;
77699;PMS5003;66867;42.658;23.320;2023-05-10T05:35:00;27;25;
77699;PMS5003;66867;42.658;23.320;2023-05-10T05:36:01;22;20;
77699;PMS5003;66867;42.658;23.320;2023-05-10T05:37:00;20;19;
77699;PMS5003;66867;42.658;23.320;2023-05-10T05:38:00;27;26;
77699;PMS5003;66867;42.658;23.320;2023-05-10T05:39:00;28;27;
77699;PMS5003;66867;42.658;23.320;2023-05-10T05:40:00;20;19;
77699;PMS5003;66867;42.658;23.320;2023-05-10T05:41:00;21;20;
77699;PMS5003;66867;42.658;23.320;2023-05-10T05:42:00;24;24;
77699;PMS5003;66867;42.658;23.320;2023-05-10T05:43:00;28;28;
77699;PMS5003;66867;42.658;23.320;2023-05-10T05:44:00;29;29;
77699;PMS5003;66867;42.658;23.320;2023-05-10T05:45:00;32;29;
77699;PMS5003;66867;42.658;23.320;2023-05-10T05:46:00;27;27;
77699;PMS5003;66867;42.658;23.320;2023-05-10T05:47:00;25;25;
77699;PMS5003;66867;42.658;23.320;2023-05-10T05:48:00;21;21;
77699;PMS5003;66867;42.658;23.320;2023-05-10T05:49:00;24;24;
77699;PMS5003;66867;42.658;23.320;2023-05-10T05:50:00;20;20;
77699;PMS5003;66867;42.658;23.320;2023-05-10T05:51:00;24;24;
77699;PMS5003;66867;42.658;23.320;2023-05-10T05:52:02;22;22;
77699;PMS5003;66867;42.658;23.320;2023-05-10T05:53:00;24;24;
77699;PMS5003;66867;42.658;23.320;2023-05-10T05:54:00;25;24;
77699;PMS5003;66867;42.658;23.320;2023-05-10T05:55:00;20;19;
77699;PMS5003;66867;42.658;23.320;2023-05-10T05:56:00;22;22;
77699;PMS5003;66867;42.658;23.320;2023-05-10T05:57:00;20;20;
77699;PMS5003;66867;42.658;23.320;2023-05-10T05:58:00;29;27;
77699;PMS5003;66867;42.658;23.320;2023-05-10T05:59:00;25;24;
77699;PMS5003;66867;42.658;23.320;2023-05-10T06:00:00;31;29;
77699;PMS5003;66867;42.658;23.320;2023-05-10T06:01:00;26;26;
77699;PMS5003;66867;42.658;23.320;2023-05-10T06:02:00;25;24;
77699;PMS5003;66867;42.658;23.320;2023-05-10T06:03:00;32;30;
77699;PMS5003;66867;42.658;23.320;2023-05-10T06:04:00;28;26;
77699;PMS5003;66867;42.658;23.320;2023-05-10T06:05:00;29;28;
77699;PMS5003;66867;42.658;23.320;2023-05-10T06:06:00;35;34;
77699;PMS5003;66867;42.658;23.320;2023-05-10T06:07:00;21;21;
77699;PMS5003;66867;42.658;23.320;2023-05-10T06:08:00;25;24;
77699;PMS5003;66867;42.658;23.320;2023-05-10T06:09:00;22;22;
77699;PMS5003;66867;42.658;23.320;2023-05-10T06:10:00;21;20;
77699;PMS5003;66867;42.658;23.320;2023-05-10T06:11:01;19;18;
77699;PMS5003;66867;42.658;23.320;2023-05-10T06:12:00;28;28;
77699;PMS5003;66867;42.658;23.320;2023-05-10T06:13:00;22;22;
77699;PMS5003;66867;42.658;23.320;2023-05-10T06:14:01;27;25;
77699;PMS5003;66867;42.658;23.320;2023-05-10T06:15:00;32;29;
77699;PMS5003;66867;42.658;23.320;2023-05-10T06:16:01;30;28;
77699;PMS5003;66867;42.658;23.320;2023-05-10T06:17:00;27;26;
77699;PMS5003;66867;42.658;23.320;2023-05-10T06:18:00;26;26;
77699;PMS5003;66867;42.658;23.320;2023-05-10T06:19:00;25;25;
77699;PMS5003;66867;42.658;23.320;2023-05-10T06:20:00;25;25;
77699;PMS5003;66867;42.658;23.320;2023-05-10T06:21:00;26;25;
77699;PMS5003;66867;42.658;23.320;2023-05-10T06:22:01;27;26;
77699;PMS5003;66867;42.658;23.320;2023-05-10T06:23:00;26;26;
77699;PMS5003;66867;42.658;23.320;2023-05-10T06:24:00;27;25;
77699;PMS5003;66867;42.658;23.320;2023-05-10T06:25:00;30;30;
77699;PMS5003;66867;42.658;23.320;2023-05-10T06:26:00;28;28;
77699;PMS5003;66867;42.658;23.320;2023-05-10T06:27:00;26;26;
77699;PMS5003;66867;42.658;23.320;2023-05-10T06:28:00;21;21;
77699;PMS5003;66867;42.658;23.320;2023-05-10T06:29:00;30;29;
77699;PMS5003;66867;42.658;23.320;2023-05-10T06:30:00;28;27;
77699;PMS5003;66867;42.658;23.320;2023-05-10T06:31:00;26;24;
77699;PMS5003;66867;42.658;23.320;2023-05-10T06:32:00;26;25;
77699;PMS5003;66867;42.658;23.320;2023-05-10T06:33:00;29;29;
77699;PMS5003;66867;42.658;23.320;2023-05-10T06:34:00;29;28;
77699;PMS5003;66867;42.658;23.320;2023-05-10T06:35:00;26;23;
77699;PMS5003;66867;42.658;23.320;2023-05-10T06:36:00;27;26;
77699;PMS5003;66867;42.658;23.320;2023-05-10T06:37:00;23;22;
77699;PMS5003;66867;42.658;23.320;2023-05-10T06:38:00;26;21;
77699;PMS5003;66867;42.658;23.320;2023-05-10T06:39:00;25;25;
77699;PMS5003;66867;42.658;23.320;2023-05-10T06:40:00;27;26;
77699;PMS5003;66867;42.658;23.320;2023-05-10T06:41:00;28;28;
77699;PMS5003;66867;42.658;23.320;2023-05-10T06:42:00;29;28;
77699;PMS5003;66867;42.658;23.320;2023-05-10T06:43:00;27;27;